Hallie, Kentucky
Current Conditions -  °F | °C
As of 3:55 AM on Friday 31 Oct 2014 (Local Time) from KI35 Reporting Station
Overcast Overcast  
Wind Chill: 29°   Ceiling: 100
Heat Index: 36°   Visibility: 0.25mi
Dew Point: 36°   Wind: 8mph
Humidity: 100%   Direction: 90°E
Pressure: 30.01"   Gusts: NA
Location:  37°N, 83.06°W
Report Text: KI35 310755Z AUTO 09007KT 1/4SM OVC001 02/02 A3001 RMK AO1
Loading
Personal Weather Stations






























Interactive Weather Map
Tropical Storm Tracking
New forecast layout! Learn more

10-Day Weather Forecast

Advertisements
Track Severe Weather on mobile